createdAt,value
2018-11-05T00:02:23.559Z,10.40
2018-11-05T00:04:52.002Z,10.50
2018-11-05T00:07:20.539Z,10.40
2018-11-05T00:09:49.014Z,10.40
2018-11-05T00:12:17.518Z,10.40
2018-11-05T00:14:45.968Z,10.40
2018-11-05T00:17:14.470Z,10.40
2018-11-05T00:19:43.033Z,10.50
2018-11-05T00:22:11.480Z,10.50
2018-11-05T00:24:39.939Z,10.40
2018-11-05T00:27:08.383Z,10.40
2018-11-05T00:29:36.840Z,10.40
2018-11-05T00:32:05.535Z,10.30
2018-11-05T00:34:34.121Z,10.30
2018-11-05T00:37:02.537Z,10.30
2018-11-05T00:39:31.115Z,10.30
2018-11-05T00:41:59.690Z,10.30
2018-11-05T00:44:28.166Z,10.30
2018-11-05T00:46:56.592Z,10.30
2018-11-05T00:49:25.326Z,10.20
2018-11-05T00:51:53.744Z,10.20
2018-11-05T00:54:22.461Z,10.20
2018-11-05T00:56:50.932Z,10.10
2018-11-05T00:59:19.431Z,10.10
2018-11-05T01:01:47.849Z,10.00
2018-11-05T01:04:16.395Z,10.00
2018-11-05T01:06:44.808Z,10.10
2018-11-05T01:09:13.313Z,10.10
2018-11-05T01:11:41.780Z,10.10
2018-11-05T01:14:10.304Z,10.00
2018-11-05T01:16:39.294Z,10.00
2018-11-05T01:19:07.734Z,10.10
2018-11-05T01:21:36.359Z,10.10
2018-11-05T01:24:05.148Z,10.10
2018-11-05T01:26:33.554Z,10.20
2018-11-05T01:29:02.017Z,10.20
2018-11-05T01:31:30.432Z,10.30
2018-11-05T01:33:58.895Z,10.30
2018-11-05T01:36:27.437Z,10.20
2018-11-05T01:38:55.867Z,10.20
2018-11-05T01:41:24.277Z,10.20
2018-11-05T01:43:52.700Z,10.10
2018-11-05T01:46:21.151Z,10.20
2018-11-05T01:48:49.696Z,10.10
2018-11-05T01:51:18.118Z,10.00
2018-11-05T01:53:46.556Z,10.00
2018-11-05T01:56:15.051Z,10.00
2018-11-05T01:58:43.593Z,10.00
2018-11-05T02:01:18.377Z,9.90
2018-11-05T02:03:46.857Z,9.90
2018-11-05T02:06:15.251Z,9.90
2018-11-05T02:08:43.831Z,9.80
2018-11-05T02:11:12.259Z,9.80
2018-11-05T02:13:40.702Z,9.80
2018-11-05T02:16:09.658Z,9.70
2018-11-05T02:18:38.239Z,9.60
2018-11-05T02:21:06.726Z,9.60
2018-11-05T02:23:35.522Z,9.50
2018-11-05T02:26:03.928Z,9.50
2018-11-05T02:28:32.371Z,9.60
2018-11-05T02:31:00.934Z,9.60
2018-11-05T02:33:29.408Z,9.60
2018-11-05T02:35:57.820Z,9.70
2018-11-05T02:38:26.234Z,9.70
2018-11-05T02:40:54.702Z,9.70
2018-11-05T02:43:23.135Z,9.70
2018-11-05T02:45:51.623Z,9.70
2018-11-05T02:48:20.035Z,9.70
2018-11-05T02:50:48.483Z,9.70
2018-11-05T02:53:17.001Z,9.70
2018-11-05T02:55:45.545Z,9.70
2018-11-05T02:58:13.974Z,9.60
2018-11-05T03:00:42.427Z,9.70
2018-11-05T03:03:10.981Z,9.70
2018-11-05T03:05:39.569Z,9.70
2018-11-05T03:08:08.044Z,9.80
2018-11-05T03:10:36.491Z,9.80
2018-11-05T03:13:05.076Z,9.80
2018-11-05T03:15:33.544Z,9.70
2018-11-05T03:18:01.983Z,9.70
2018-11-05T03:20:30.592Z,9.70
2018-11-05T03:22:59.304Z,9.60
2018-11-05T03:25:27.938Z,9.60
2018-11-05T03:27:56.399Z,9.60
2018-11-05T03:30:24.967Z,9.50
2018-11-05T03:32:53.499Z,9.50
2018-11-05T03:35:22.135Z,9.50
2018-11-05T03:37:50.709Z,9.50
2018-11-05T03:40:19.165Z,9.40
2018-11-05T03:42:48.131Z,9.40
2018-11-05T03:45:17.298Z,9.40
2018-11-05T03:47:46.014Z,9.50
2018-11-05T03:50:17.088Z,9.50
2018-11-05T03:52:46.374Z,9.50
2018-11-05T03:55:16.017Z,9.50
2018-11-05T03:57:44.675Z,9.50
2018-11-05T04:00:14.889Z,9.50
2018-11-05T04:02:43.471Z,9.50
2018-11-05T04:05:12.026Z,9.50
2018-11-05T04:07:40.836Z,9.50
2018-11-05T04:10:10.570Z,9.50
2018-11-05T04:12:38.980Z,9.60
2018-11-05T04:15:07.874Z,9.60
2018-11-05T04:17:36.481Z,9.50
2018-11-05T04:20:06.156Z,9.50
2018-11-05T04:22:34.717Z,9.60
2018-11-05T04:25:03.181Z,9.60
2018-11-05T04:27:31.794Z,9.60
2018-11-05T04:30:00.387Z,9.60
2018-11-05T04:32:28.838Z,9.60
2018-11-05T04:34:57.332Z,9.50
2018-11-05T04:37:25.770Z,9.50
2018-11-05T04:39:54.283Z,9.50
2018-11-05T04:42:22.731Z,9.50
2018-11-05T04:44:51.141Z,9.50
2018-11-05T04:47:19.656Z,9.40
2018-11-05T04:49:48.099Z,9.30
2018-11-05T04:52:16.556Z,9.30
2018-11-05T04:54:45.032Z,9.20
2018-11-05T04:57:13.492Z,9.20
2018-11-05T04:59:41.925Z,9.20
2018-11-05T05:02:10.375Z,9.30
2018-11-05T05:04:38.815Z,9.30
2018-11-05T05:07:07.443Z,9.30
2018-11-05T05:09:35.906Z,9.30
2018-11-05T05:12:04.725Z,9.30
2018-11-05T05:14:33.186Z,9.30
2018-11-05T05:17:01.638Z,9.30
2018-11-05T05:19:30.086Z,9.30
2018-11-05T05:21:58.685Z,9.30
2018-11-05T05:24:27.136Z,9.20
2018-11-05T05:26:55.759Z,9.10
2018-11-05T05:29:24.184Z,8.90
2018-11-05T05:31:52.662Z,8.90
2018-11-05T05:34:21.139Z,9.00
2018-11-05T05:36:49.583Z,8.90
2018-11-05T05:39:18.098Z,9.00
2018-11-05T05:41:46.554Z,9.00
2018-11-05T05:44:15.142Z,8.90
2018-11-05T05:46:43.666Z,8.90
2018-11-05T05:49:12.137Z,9.00
2018-11-05T05:51:40.700Z,9.00
2018-11-05T05:54:09.286Z,9.00
2018-11-05T05:56:37.855Z,9.00
2018-11-05T05:59:06.447Z,8.90
2018-11-05T06:01:34.891Z,8.80
2018-11-05T06:04:03.407Z,8.80
2018-11-05T06:06:31.848Z,8.80
2018-11-05T06:09:00.571Z,8.80
2018-11-05T06:11:28.974Z,8.80
2018-11-05T06:13:57.430Z,8.80
2018-11-05T06:16:25.950Z,8.70
2018-11-05T06:18:54.452Z,8.80
2018-11-05T06:21:22.862Z,8.80
2018-11-05T06:23:51.300Z,8.80
2018-11-05T06:26:19.846Z,8.80
2018-11-05T06:28:48.593Z,8.80
2018-11-05T06:31:17.002Z,8.70
2018-11-05T06:33:45.493Z,8.80
2018-11-05T06:36:14.080Z,8.90
2018-11-05T06:38:42.535Z,9.00
2018-11-05T06:41:11.040Z,9.00
2018-11-05T06:43:39.810Z,9.00
2018-11-05T06:46:08.299Z,9.10
2018-11-05T06:48:36.884Z,9.10
2018-11-05T06:51:05.338Z,9.00
2018-11-05T06:53:33.920Z,9.10
2018-11-05T06:56:02.401Z,9.10
2018-11-05T06:58:30.981Z,9.10
2018-11-05T07:00:59.451Z,9.10
2018-11-05T07:03:28.045Z,9.10
2018-11-05T07:05:56.536Z,9.10
2018-11-05T07:08:25.184Z,9.20
2018-11-05T07:10:53.602Z,9.20
2018-11-05T07:13:22.083Z,9.20
2018-11-05T07:15:50.506Z,9.20
2018-11-05T07:18:19.213Z,9.10
2018-11-05T07:20:48.218Z,9.30
2018-11-05T07:23:16.730Z,9.30
2018-11-05T07:25:45.300Z,9.40
2018-11-05T07:28:13.762Z,9.50
2018-11-05T07:30:42.417Z,9.60
2018-11-05T07:33:11.055Z,9.60
2018-11-05T07:35:39.651Z,9.70
2018-11-05T07:38:08.268Z,9.70
2018-11-05T07:40:38.505Z,9.80
2018-11-05T07:43:07.176Z,9.90
2018-11-05T07:45:35.646Z,9.90
2018-11-05T07:48:04.124Z,10.00
2018-11-05T07:50:32.661Z,10.10
2018-11-05T07:53:01.559Z,10.20
2018-11-05T07:55:30.092Z,10.30
2018-11-05T07:57:58.803Z,10.40
2018-11-05T08:00:32.846Z,10.40
2018-11-05T08:03:01.412Z,10.30
2018-11-05T08:05:30.145Z,10.40
2018-11-05T08:07:58.610Z,10.50
2018-11-05T08:10:27.080Z,10.60
2018-11-05T08:12:55.518Z,10.60
2018-11-05T08:15:25.167Z,10.70
2018-11-05T08:17:54.339Z,10.70
2018-11-05T08:20:22.926Z,10.60
2018-11-05T08:22:51.429Z,10.60
2018-11-05T08:25:20.479Z,10.60
2018-11-05T08:27:49.048Z,10.70
2018-11-05T08:30:20.188Z,10.60
2018-11-05T08:32:48.720Z,10.60
2018-11-05T08:35:17.121Z,10.70
2018-11-05T08:37:46.534Z,10.70
2018-11-05T08:40:17.459Z,10.70
2018-11-05T08:42:47.044Z,10.80
2018-11-05T08:45:17.040Z,10.80
2018-11-05T08:47:45.612Z,10.80
2018-11-05T08:50:16.840Z,10.90
2018-11-05T08:52:45.312Z,11.00
2018-11-05T08:55:16.685Z,11.00
2018-11-05T08:57:46.780Z,11.10
2018-11-05T09:00:21.842Z,11.30
2018-11-05T09:02:50.421Z,11.30
2018-11-05T09:05:19.188Z,11.40
2018-11-05T09:07:48.273Z,11.50
2018-11-05T09:10:16.915Z,11.40
2018-11-05T09:12:45.553Z,11.50
2018-11-05T09:15:15.570Z,11.60
2018-11-05T09:17:44.831Z,11.60
2018-11-05T09:20:14.461Z,11.60
2018-11-05T09:22:42.870Z,11.80
2018-11-05T09:25:12.193Z,12.00
2018-11-05T09:27:40.695Z,12.10
2018-11-05T09:30:11.440Z,12.20
2018-11-05T09:32:39.907Z,12.40
2018-11-05T09:35:08.641Z,12.50
2018-11-05T09:37:37.055Z,12.70
2018-11-05T09:40:07.331Z,12.80
2018-11-05T09:42:35.795Z,13.00
2018-11-05T09:45:04.450Z,13.20
2018-11-05T09:47:33.471Z,13.50
2018-11-05T09:50:02.183Z,13.60
2018-11-05T09:52:30.712Z,13.60
2018-11-05T09:54:59.200Z,13.90
2018-11-05T09:57:27.832Z,14.20
2018-11-05T09:59:56.347Z,14.30
2018-11-05T10:02:28.466Z,14.50
2018-11-05T10:04:57.285Z,14.60
2018-11-05T10:07:25.595Z,14.70
2018-11-05T10:09:54.075Z,14.80
2018-11-05T10:12:22.518Z,14.70
2018-11-05T10:14:50.946Z,14.70
2018-11-05T10:17:19.370Z,14.70
2018-11-05T10:19:47.920Z,14.60
2018-11-05T10:22:16.369Z,14.50
2018-11-05T10:24:45.029Z,14.50
2018-11-05T10:27:13.474Z,14.30
2018-11-05T10:29:41.932Z,14.30
2018-11-05T10:32:10.404Z,14.40
2018-11-05T10:34:38.807Z,14.40
2018-11-05T10:37:07.376Z,14.40
2018-11-05T10:39:35.839Z,14.50
2018-11-05T10:42:04.831Z,14.50
2018-11-05T10:44:33.311Z,14.60
2018-11-05T10:47:01.821Z,14.60
2018-11-05T10:49:30.262Z,14.70
2018-11-05T10:51:58.826Z,14.60
2018-11-05T10:54:27.606Z,14.40
2018-11-05T10:56:56.277Z,14.50
2018-11-05T10:59:24.896Z,14.70
2018-11-05T11:01:58.885Z,14.90
2018-11-05T11:04:33.104Z,14.90
2018-11-05T11:07:02.633Z,14.90
2018-11-05T11:09:31.165Z,15.10
2018-11-05T11:12:00.553Z,15.30
2018-11-05T11:14:29.547Z,15.40
2018-11-05T11:16:57.967Z,15.60
2018-11-05T11:19:26.450Z,15.70
2018-11-05T11:21:54.958Z,15.80
2018-11-05T11:24:23.629Z,15.90
2018-11-05T11:26:52.093Z,16.20
2018-11-05T11:29:20.679Z,16.40
2018-11-05T11:31:49.398Z,16.70
2018-11-05T11:34:17.808Z,16.80
2018-11-05T11:36:46.412Z,16.80
2018-11-05T11:39:14.872Z,17.10
2018-11-05T11:41:43.299Z,17.30
2018-11-05T11:44:11.839Z,17.60
2018-11-05T11:46:40.375Z,17.80
2018-11-05T11:49:09.723Z,17.90
2018-11-05T11:51:38.191Z,18.00
2018-11-05T11:54:06.765Z,18.20
2018-11-05T11:56:35.254Z,18.40
2018-11-05T11:59:03.866Z,18.50
2018-11-05T12:01:36.571Z,18.50
2018-11-05T12:04:05.195Z,18.60
2018-11-05T12:06:33.771Z,18.80
2018-11-05T12:09:02.515Z,18.80
2018-11-05T12:11:30.956Z,18.90
2018-11-05T12:13:59.486Z,18.90
2018-11-05T12:16:28.038Z,19.00
2018-11-05T12:18:56.549Z,18.90
2018-11-05T12:21:25.026Z,18.80
2018-11-05T12:23:53.575Z,18.40
2018-11-05T12:26:22.066Z,18.40
2018-11-05T12:28:50.569Z,18.20
2018-11-05T12:31:19.075Z,18.00
2018-11-05T12:33:47.508Z,17.90
2018-11-05T12:36:15.928Z,17.70
2018-11-05T12:38:44.555Z,17.70
2018-11-05T12:41:13.121Z,17.90
2018-11-05T12:43:41.602Z,18.10
2018-11-05T12:46:10.022Z,18.30
2018-11-05T12:48:38.509Z,18.60
2018-11-05T12:51:07.337Z,18.90
2018-11-05T12:53:36.168Z,19.20
2018-11-05T12:56:04.772Z,19.40
2018-11-05T12:58:40.085Z,19.40
2018-11-05T13:01:08.500Z,19.30
2018-11-05T13:03:36.958Z,19.40
2018-11-05T13:06:05.786Z,19.50
2018-11-05T13:08:34.257Z,19.90
2018-11-05T13:11:02.626Z,20.30
2018-11-05T13:13:31.086Z,20.90
2018-11-05T13:15:59.497Z,21.70
2018-11-05T13:18:28.073Z,21.90
2018-11-05T13:20:56.639Z,22.20
2018-11-05T13:23:30.384Z,22.30
2018-11-05T13:25:58.838Z,22.50
2018-11-05T13:28:27.322Z,22.70
2018-11-05T13:30:55.875Z,22.70
2018-11-05T13:33:24.317Z,22.80
2018-11-05T13:35:53.054Z,22.90
2018-11-05T13:38:21.513Z,22.70
2018-11-05T13:40:50.078Z,23.00
2018-11-05T13:43:18.519Z,23.70
2018-11-05T13:45:47.159Z,23.80
2018-11-05T13:48:15.954Z,24.40
2018-11-05T13:50:44.422Z,24.40
2018-11-05T13:53:12.983Z,24.30
2018-11-05T13:55:41.464Z,24.20
2018-11-05T13:58:10.068Z,24.00
2018-11-05T14:00:38.641Z,24.00
2018-11-05T14:03:07.147Z,24.00
2018-11-05T14:05:35.573Z,24.20
2018-11-05T14:08:04.271Z,24.50
2018-11-05T14:10:32.699Z,24.50
2018-11-05T14:13:01.199Z,24.60
2018-11-05T14:15:29.710Z,24.90
2018-11-05T14:17:58.223Z,25.30
2018-11-05T14:20:26.670Z,25.50
2018-11-05T14:22:55.340Z,25.70
2018-11-05T14:25:23.793Z,25.20
2018-11-05T14:27:53.183Z,24.80
2018-11-05T14:30:21.552Z,24.70
2018-11-05T14:32:50.685Z,24.60
2018-11-05T14:35:19.214Z,24.40
2018-11-05T14:37:47.896Z,24.20
2018-11-05T14:40:17.318Z,24.30
2018-11-05T14:42:45.955Z,23.80
2018-11-05T14:45:17.102Z,23.30
2018-11-05T14:47:46.361Z,22.70
2018-11-05T14:50:16.589Z,22.10
2018-11-05T14:52:45.010Z,21.60
2018-11-05T14:55:15.298Z,21.40
2018-11-05T14:57:44.690Z,21.40
2018-11-05T15:00:15.341Z,21.70
2018-11-05T15:02:44.639Z,22.30
2018-11-05T15:05:14.047Z,23.10
2018-11-05T15:07:43.500Z,23.60
2018-11-05T15:10:17.342Z,23.80
2018-11-05T15:12:46.044Z,24.30
2018-11-05T15:15:15.051Z,24.40
2018-11-05T15:17:43.817Z,23.80
2018-11-05T15:20:15.796Z,23.60
2018-11-05T15:22:44.131Z,23.30
2018-11-05T15:25:13.111Z,22.80
2018-11-05T15:27:41.833Z,22.10
2018-11-05T15:30:12.404Z,21.40
2018-11-05T15:32:41.513Z,20.70
2018-11-05T15:35:10.053Z,20.00
2018-11-05T15:37:39.314Z,19.40
2018-11-05T15:40:08.679Z,19.00
2018-11-05T15:42:37.234Z,18.60
2018-11-05T15:45:07.209Z,18.20
2018-11-05T15:47:35.656Z,17.90
2018-11-05T15:50:05.882Z,17.60
2018-11-05T15:52:34.752Z,17.40
2018-11-05T15:55:02.982Z,17.20
2018-11-05T15:57:31.518Z,17.10
2018-11-05T16:00:00.019Z,16.90
2018-11-05T16:02:28.720Z,16.70
2018-11-05T16:04:57.307Z,16.60
2018-11-05T16:07:25.810Z,16.50
2018-11-05T16:09:54.329Z,16.30
2018-11-05T16:12:22.732Z,16.20
2018-11-05T16:14:51.476Z,16.10
2018-11-05T16:17:20.053Z,16.00
2018-11-05T16:19:48.502Z,15.90
2018-11-05T16:22:16.989Z,15.80
2018-11-05T16:24:45.500Z,15.70
2018-11-05T16:27:13.978Z,15.60
2018-11-05T16:29:42.534Z,15.50
2018-11-05T16:32:11.056Z,15.40
2018-11-05T16:34:39.788Z,15.30
2018-11-05T16:37:08.389Z,15.30
2018-11-05T16:39:36.928Z,15.20
2018-11-05T16:42:05.707Z,15.10
2018-11-05T16:44:34.191Z,15.00
2018-11-05T16:47:02.639Z,15.00
2018-11-05T16:49:31.078Z,15.00
2018-11-05T16:51:59.526Z,15.00
2018-11-05T16:54:28.059Z,14.90
2018-11-05T16:56:56.536Z,14.90
2018-11-05T16:59:24.980Z,14.90
2018-11-05T17:01:53.852Z,14.90
2018-11-05T17:04:22.297Z,14.90
2018-11-05T17:06:50.940Z,14.80
2018-11-05T17:09:19.733Z,14.80
2018-11-05T17:11:48.392Z,14.80
2018-11-05T17:14:17.023Z,14.70
2018-11-05T17:16:45.460Z,14.70
2018-11-05T17:19:14.509Z,14.70
2018-11-05T17:21:43.259Z,14.70
2018-11-05T17:24:11.671Z,14.70
2018-11-05T17:26:40.133Z,14.70
2018-11-05T17:29:08.569Z,14.80
2018-11-05T17:31:37.035Z,14.80
2018-11-05T17:34:05.563Z,14.80
2018-11-05T17:36:34.218Z,14.80
2018-11-05T17:39:02.716Z,14.80
2018-11-05T17:41:31.175Z,14.90
2018-11-05T17:43:59.588Z,14.90
2018-11-05T17:46:28.159Z,14.90
2018-11-05T17:48:56.635Z,14.80
2018-11-05T17:51:25.117Z,14.80
2018-11-05T17:53:54.004Z,14.80
2018-11-05T17:56:22.463Z,14.70
2018-11-05T17:58:50.931Z,14.70
2018-11-05T18:01:19.384Z,14.60
2018-11-05T18:03:47.899Z,14.60
2018-11-05T18:06:16.482Z,14.60
2018-11-05T18:08:44.988Z,14.50
2018-11-05T18:11:13.798Z,14.50
2018-11-05T18:13:43.584Z,14.40
2018-11-05T18:16:12.174Z,14.30
2018-11-05T18:18:41.155Z,14.30
2018-11-05T18:21:09.964Z,14.20
2018-11-05T18:23:39.798Z,14.10
2018-11-05T18:26:08.479Z,14.00
2018-11-05T18:28:36.939Z,13.90
2018-11-05T18:31:06.257Z,13.80
2018-11-05T18:33:34.943Z,13.70
2018-11-05T18:36:03.689Z,13.60
2018-11-05T18:38:32.372Z,13.60
2018-11-05T18:41:01.258Z,13.50
2018-11-05T18:43:29.754Z,13.40
2018-11-05T18:45:58.455Z,13.40
2018-11-05T18:48:27.003Z,13.30
2018-11-05T18:50:55.608Z,13.20
2018-11-05T18:53:24.187Z,13.20
2018-11-05T18:55:53.840Z,13.10
2018-11-05T18:58:22.318Z,13.10
2018-11-05T19:00:50.956Z,13.00
2018-11-05T19:03:19.573Z,12.90
2018-11-05T19:05:48.389Z,12.90
2018-11-05T19:08:17.007Z,12.90
2018-11-05T19:10:45.483Z,12.90
2018-11-05T19:13:14.074Z,12.80
2018-11-05T19:15:42.603Z,12.80
2018-11-05T19:18:11.521Z,12.90
2018-11-05T19:20:40.188Z,12.90
2018-11-05T19:23:09.471Z,12.90
2018-11-05T19:25:38.045Z,13.00
2018-11-05T19:28:06.662Z,12.90
2018-11-05T19:30:35.260Z,12.90
2018-11-05T19:33:03.906Z,12.90
2018-11-05T19:35:32.521Z,12.90
2018-11-05T19:38:01.345Z,12.80
2018-11-05T19:40:29.879Z,12.70
2018-11-05T19:42:58.445Z,12.60
2018-11-05T19:45:27.071Z,12.60
2018-11-05T19:47:57.021Z,12.50
2018-11-05T19:50:25.588Z,12.40
2018-11-05T19:52:54.545Z,12.40
2018-11-05T19:55:23.207Z,12.30
2018-11-05T19:57:52.549Z,12.30
2018-11-05T20:00:27.198Z,12.20
2018-11-05T20:02:56.686Z,12.20
2018-11-05T20:05:25.510Z,11.60
2018-11-05T20:07:55.629Z,12.10
2018-11-05T20:10:24.174Z,12.10
2018-11-05T20:12:52.967Z,12.10
2018-11-05T20:15:21.638Z,12.00
2018-11-05T20:17:51.706Z,12.00
2018-11-05T20:20:21.664Z,12.00
2018-11-05T20:22:50.406Z,12.00
2018-11-05T20:25:19.005Z,11.90
2018-11-05T20:27:47.495Z,11.90
2018-11-05T20:30:18.099Z,11.90
2018-11-05T20:32:48.116Z,11.80
2018-11-05T20:35:16.517Z,11.80
2018-11-05T20:37:45.156Z,11.70
2018-11-05T20:40:15.175Z,11.70
2018-11-05T20:42:44.909Z,11.70
2018-11-05T20:45:13.895Z,11.60
2018-11-05T20:47:42.655Z,11.60
2018-11-05T20:50:12.784Z,11.50
2018-11-05T20:52:41.442Z,11.50
2018-11-05T20:55:12.057Z,11.50
2018-11-05T20:57:41.249Z,11.50
2018-11-05T21:00:11.393Z,11.50
2018-11-05T21:02:40.733Z,11.40
2018-11-05T21:05:09.215Z,11.40
2018-11-05T21:07:38.036Z,11.40
2018-11-05T21:10:08.356Z,11.40
2018-11-05T21:12:37.480Z,11.40
2018-11-05T21:15:06.855Z,11.40
2018-11-05T21:17:35.399Z,11.30
2018-11-05T21:20:04.039Z,11.30
2018-11-05T21:22:32.725Z,11.30
2018-11-05T21:25:01.461Z,11.20
2018-11-05T21:27:29.925Z,11.20
2018-11-05T21:29:58.611Z,11.10
2018-11-05T21:32:27.453Z,11.10
2018-11-05T21:34:56.039Z,11.00
2018-11-05T21:37:24.626Z,11.00
2018-11-05T21:39:53.092Z,11.00
2018-11-05T21:42:21.592Z,11.00
2018-11-05T21:44:50.306Z,11.00
2018-11-05T21:47:18.954Z,11.00
2018-11-05T21:49:48.021Z,11.00
2018-11-05T21:52:16.573Z,11.10
2018-11-05T21:54:45.267Z,11.20
2018-11-05T21:57:13.750Z,11.30
2018-11-05T21:59:42.470Z,11.40
2018-11-05T22:02:10.992Z,11.60
2018-11-05T22:04:39.668Z,11.80
2018-11-05T22:07:08.353Z,11.90
2018-11-05T22:09:37.225Z,12.00
2018-11-05T22:12:06.178Z,12.10
2018-11-05T22:14:34.738Z,12.20
2018-11-05T22:17:03.256Z,12.20
2018-11-05T22:19:31.910Z,12.20
2018-11-05T22:22:00.426Z,12.30
2018-11-05T22:24:29.076Z,12.30
2018-11-05T22:26:57.549Z,12.30
2018-11-05T22:29:26.174Z,12.20
2018-11-05T22:31:54.603Z,12.20
2018-11-05T22:34:23.108Z,12.20
2018-11-05T22:36:51.721Z,12.30
2018-11-05T22:39:20.212Z,12.20
2018-11-05T22:41:48.651Z,12.20
2018-11-05T22:44:17.540Z,12.20
2018-11-05T22:46:45.978Z,12.20
2018-11-05T22:49:14.594Z,12.10
2018-11-05T22:51:43.076Z,12.10
2018-11-05T22:54:12.163Z,12.10
2018-11-05T22:56:40.812Z,12.10
2018-11-05T22:59:09.299Z,12.10
2018-11-05T23:01:43.232Z,12.10
2018-11-05T23:04:12.174Z,12.10
2018-11-05T23:06:43.029Z,12.20
2018-11-05T23:09:11.527Z,12.20
2018-11-05T23:11:40.091Z,12.20
2018-11-05T23:14:08.739Z,12.20
2018-11-05T23:16:37.178Z,12.20
2018-11-05T23:19:05.941Z,12.10
2018-11-05T23:21:34.405Z,12.10
2018-11-05T23:24:03.114Z,12.10
2018-11-05T23:26:31.590Z,12.10
2018-11-05T23:29:00.059Z,12.10
2018-11-05T23:31:28.730Z,12.10
2018-11-05T23:33:57.326Z,12.10
2018-11-05T23:36:25.974Z,12.10
2018-11-05T23:38:54.479Z,12.10
2018-11-05T23:41:23.034Z,12.10
2018-11-05T23:43:51.816Z,12.10
2018-11-05T23:46:20.357Z,12.10
2018-11-05T23:48:48.873Z,12.10
2018-11-05T23:51:17.471Z,12.10
2018-11-05T23:53:46.298Z,12.10
2018-11-05T23:56:14.919Z,12.10
2018-11-05T23:58:43.766Z,12.10
